• Join FlightAware (Why Join?)
  • Login
  • US Flag 
06:46PM EDT


 

Airport Tracker/Info


-or-


 

Live Flight TrackerFlight Track Log ✈ AWI3780 ✈ 27-Apr-2013 ✈ KBTV - KPHL

Flight Track Log - Related Links

Times and Time Zones

All times are in EDT time to prevent confusion due to time zone crossing. See the AWI3780 flight status page for this flight to view local times or setup timezone preferences in your user account.

Time Position Orientation Groundspeed Altitude Reporting Facility
EDT Latitude Longitude Course Direction KTS MPH feet Rate Location/Type
04:21PM 44.1782 -73.2554 196° South  Level FlightAware Approximate
04:21PM 44.4933 -73.3161 249° West 203 234 6,600  Level Boston Center
04:22PM 44.0823 -73.2938 196° South  Level FlightAware Approximate
04:22PM 44.4286 -73.3500 201° Southwest 208 239 8,000  Level Boston Center
04:23PM 43.9864 -73.3322 196° South  Level FlightAware Approximate
04:23PM 44.3514 -73.3692 190° South 259 298 10,100  Level Boston Center
04:24PM 43.8905 -73.3702 195° South  Level FlightAware Approximate
04:24PM 44.2386 -73.4019 192° South 310 357 13,500  Level Boston Center
04:25PM 43.7941 -73.4058 195° South  Level FlightAware Approximate
04:26PM 44.0569 -73.4511 191° South 335 386 17,700  Level Boston Center
04:27PM 43.9586 -73.4783 191° South 355 409 18,700 1,380 Climbing Boston Center
04:28PM 43.8564 -73.5083 192° South 367 422 20,500 1,620 Climbing Boston Center
04:29PM 43.7519 -73.5350 190° South 380 437 22,000 1,620 Climbing Boston Center
04:30PM 43.6558 -73.5622 192° South 389 448 23,800 1,560 Climbing Boston Center
04:31PM 43.5633 -73.6206 205° Southwest 389 448 25,200 1,080 Climbing Boston Center
04:32PM 43.4750 -73.7047 215° Southwest 375 432 26,000 360 Climbing Boston Center
04:33PM 43.3758 -73.8056 216° Southwest 402 463 26,000  Level Boston Center
04:34PM 43.2831 -73.8975 216° Southwest 407 468 26,000  Level Boston Center
04:35PM 43.1922 -73.9836 215° Southwest 407 468 26,000  Level Boston Center
04:36PM 43.1142 -74.0614 216° Southwest 407 468 26,000  Level Boston Center
04:37PM 43.0253 -74.1497 216° Southwest 407 468 26,000  Level Boston Center
04:38PM 42.9364 -74.2353 215° Southwest 402 463 26,000  Level Boston Center
04:39PM 42.8686 -74.3014 216° Southwest 397 457 26,000  Level Boston Center
04:40PM 42.7628 -74.4028 215° Southwest 391 450 26,000  Level Boston Center
04:41PM 42.6758 -74.4847 215° Southwest 391 450 26,000  Level Boston Center
04:42PM 42.5889 -74.5692 216° Southwest 391 450 26,000  Level Boston Center
04:43PM 42.5039 -74.6536 216° Southwest 386 444 26,000  Level Boston Center
04:44PM 42.4147 -74.7378 215° Southwest 386 444 26,000 -480 Level Boston Center
04:46PM 42.1978 -74.9389 215° Southwest 381 438 24,500 -1,140 Descending New York Center
04:47PM 42.1075 -75.0197 214° Southwest 387 445 22,200 -2,220 Descending New York Center
04:48PM 42.0175 -75.0894 210° Southwest 392 451 20,200 -1,620 Descending New York Center
04:49PM 41.9381 -75.1567 212° Southwest 382 440 19,000 -600 Descending New York Center
04:50PM 41.8458 -75.2342 212° Southwest 371 427 19,000  Level New York Center
04:51PM 41.7619 -75.3008 211° Southwest 366 421 19,000 -780 Level New York Center
04:52PM 41.6761 -75.3700 211° Southwest 361 415 17,500 -1,800 Descending New York Center
04:53PM 41.5986 -75.4311 211° Southwest 366 421 15,500 -1,980 Descending New York Center
04:54PM 41.5211 -75.4950 212° Southwest 346 398 13,600 -1,800 Descending New York Center
04:55PM 41.4331 -75.5636 210° Southwest 346 398 12,000 -900 Descending New York Center
04:56PM 41.3708 -75.6117 210° Southwest 341 392 11,900  Descending New York Center
04:57PM 41.2847 -75.6772 210° Southwest 341 392 12,000 -120 Climbing New York Center
04:58PM 41.1861 -75.6922 187° South 320 368 11,700 -420 Descending New York Center
04:59PM 41.1031 -75.6889 178° South 331 381 11,200 -540 Descending New York Center
05:00PM 41.0092 -75.6875 179° South 331 381 10,700 -600 Descending New York Center
05:01PM 40.9092 -75.6886 180° South 331 381 10,100 -420 Descending New York Center
05:02PM 40.8156 -75.6844 178° South 331 381 9,900 -120 Descending New York Center
05:03PM 40.7322 -75.6375 157° South 326 375 9,900  Level New York Center
05:04PM 40.6633 -75.5861 150° Southeast 326 375 10,000  Climbing New York Center
05:05PM 40.5764 -75.5225 151° Southeast 326 375 9,900 -60 Descending New York Center
05:06PM 40.4994 -75.4681 152° Southeast 318 366 9,900  Level New York Center
05:07PM 40.4242 -75.4167 153° Southeast 318 366 9,900  Level New York Center
05:08PM 40.3531 -75.3764 157° South 311 358 10,000  Climbing New York Center
05:09PM 40.2672 -75.3272 156° South 311 358 9,900 -660 Descending New York Center
05:10PM 40.1978 -75.2900 158° South 306 352 8,700 -1,320 Descending New York Center
05:11PM 40.1244 -75.2472 156° South 299 344 7,300 -1,380 Descending New York Center
05:12PM 40.0447 -75.2042 158° South 294 338 6,000 -1,560 Descending New York Center
05:13PM 40.0014 -75.1417 132° Southeast 264 304 4,200 -1,800 Descending New York Center